Tiptonville, TN (38079)

8:08 AM CDT on September 04, 2015 (GMT -0500)
Mt. Moriah R/C Airport | | Change Station
CLOSE
Current Station
Personal Weather Station
Location: Obion, TN
Elevation: 315 ft
Nearby Weather Stations

Elev 315 ft 36.29 °N, 89.23 °W | Updated 10 seconds ago

Clear
Clear
75.2 °F
Feels Like 74 °F
N
0.0
Wind Variable Wind from NNE
Gusts 0.0 mph

Today
High -- | Low -- °F
--% Chance of Precip.
Yesterday
High -- | Low -- °F
Precip. -- in
6:31 AM 7:21 PM
Waning Gibbous, 59% visible
Pressure 30.04 in
Visibility 10.0 miles
Clouds Clear
Heat Index 74 °F
Dew Point 72 °F
Humidity 90%
Rainfall 0.00 in
Snow Depth Not available.
UV 1.0 out of 12
Pollen 10.80 out of 12
Air Quality Not available.
Flu Activity Not available.
METAR KDYR 041255Z 09004KT 10SM CLR 23/22 A3004 RMK AO1
Pressure 30.04 in
Visibility 10.0 miles
Clouds Clear
Heat Index 74 °F
Dew Point 72 °F
Humidity 90%
Rainfall 0.00 in
Snow Depth Not available.
UV 1.0 out of 12
Pollen 10.80 out of 12
Air Quality Not available.
Flu Activity Not available.
METAR KDYR 041255Z 09004KT 10SM CLR 23/22 A3004 RMK AO1

10-Day Weather Forecast

×

Almanac

Astronomy

Sep. 04, 2015 Rise Set
Actual Time
Civil Twilight
Nautical Twilight
Astronomical Twilight
Moon
Length of Visible Light
Length of Day
Tomorrow will be .
, % of the Moon is Illuminated

Today's Extremes

State Highs State Lows

Community

WunderPhotos

Upload Photos

1,852,179 photos uploaded!

WunderBlogs® & News

Nearby

Air Quality

  Air Quality AQ Index Pollutant
Not available.

Snow Depth

Station Depth Elevation

Earthquake Activity

City Distance Mag. Time & Date
Minimum magnitude displayed is 2.5.

Coastal Water Temperatures

Place Temperature

Stations

Nearby Weather Stations

Station Location Temp. Windchill Dew Point Humidity Wind Precip. Elev Updated Type